createdAt,value
2019-02-05T00:07:48.259Z,5.00
2019-02-05T00:17:51.821Z,4.80
2019-02-05T00:27:53.897Z,4.80
2019-02-05T00:37:56.428Z,4.90
2019-02-05T00:47:59.248Z,4.90
2019-02-05T00:58:01.684Z,4.90
2019-02-05T01:08:03.864Z,5.00
2019-02-05T01:18:06.233Z,4.90
2019-02-05T01:28:08.473Z,4.90
2019-02-05T01:38:11.375Z,4.90
2019-02-05T01:48:13.650Z,4.90
2019-02-05T01:58:16.265Z,4.90
2019-02-05T02:08:18.888Z,4.80
2019-02-05T02:18:21.399Z,4.80
2019-02-05T02:28:23.786Z,4.80
2019-02-05T02:38:26.670Z,4.80
2019-02-05T02:48:29.262Z,4.80
2019-02-05T02:58:31.713Z,4.80
2019-02-05T03:08:34.218Z,4.80
2019-02-05T03:18:36.435Z,4.70
2019-02-05T03:28:38.996Z,4.80
2019-02-05T03:39:00.390Z,4.80
2019-02-05T03:49:02.988Z,4.80
2019-02-05T03:59:46.972Z,4.80
2019-02-05T04:10:31.381Z,4.80
2019-02-05T04:21:27.572Z,4.80
2019-02-05T04:31:46.647Z,4.80
2019-02-05T04:42:19.532Z,4.80
2019-02-05T04:53:16.495Z,4.80
2019-02-05T05:04:11.509Z,4.80
2019-02-05T05:14:14.020Z,4.80
2019-02-05T05:24:16.919Z,4.80
2019-02-05T05:34:19.646Z,4.80
2019-02-05T05:44:21.805Z,4.80
2019-02-05T05:54:23.894Z,4.80
2019-02-05T06:04:26.236Z,4.80
2019-02-05T06:14:28.175Z,4.80
2019-02-05T06:24:30.368Z,4.90
2019-02-05T06:34:32.480Z,4.80
2019-02-05T06:44:34.435Z,4.80
2019-02-05T06:54:37.074Z,4.90
2019-02-05T07:04:39.175Z,4.90
2019-02-05T07:14:41.307Z,4.90
2019-02-05T07:24:44.357Z,4.90
2019-02-05T07:34:46.449Z,5.00
2019-02-05T07:44:51.269Z,5.00
2019-02-05T07:54:55.676Z,5.10
2019-02-05T08:05:00.631Z,5.10
2019-02-05T08:15:01.468Z,5.20
2019-02-05T08:25:06.919Z,5.20
2019-02-05T08:35:10.134Z,5.40
2019-02-05T08:45:17.771Z,5.40
2019-02-05T08:55:19.912Z,5.50
2019-02-05T09:05:22.168Z,5.60
2019-02-05T09:15:29.382Z,5.70
2019-02-05T09:25:28.135Z,5.70
2019-02-05T09:35:30.827Z,5.80
2019-02-05T09:45:32.811Z,6.00
2019-02-05T09:55:36.074Z,6.00
2019-02-05T10:05:37.869Z,6.20
2019-02-05T10:15:40.392Z,6.20
2019-02-05T10:25:42.639Z,6.30
2019-02-05T10:35:44.775Z,6.50
2019-02-05T10:45:46.928Z,6.60
2019-02-05T10:55:54.990Z,6.80
2019-02-05T11:05:57.024Z,6.70
2019-02-05T11:15:59.371Z,6.80
2019-02-05T11:26:01.744Z,6.90
2019-02-05T11:36:04.115Z,7.00
2019-02-05T11:46:06.801Z,7.00
2019-02-05T11:56:09.075Z,7.10
2019-02-05T12:06:11.596Z,7.40
2019-02-05T12:16:13.815Z,7.60
2019-02-05T12:26:16.239Z,7.60
2019-02-05T12:36:18.246Z,7.40
2019-02-05T12:46:20.251Z,7.30
2019-02-05T12:56:22.923Z,7.20
2019-02-05T13:06:25.396Z,7.20
2019-02-05T13:16:27.935Z,7.30
2019-02-05T13:26:30.765Z,7.60
2019-02-05T13:36:33.275Z,7.70
2019-02-05T13:46:35.333Z,7.90
2019-02-05T13:56:37.655Z,7.90
2019-02-05T14:06:40.185Z,7.90
2019-02-05T14:16:42.563Z,7.90
2019-02-05T14:26:45.094Z,7.80
2019-02-05T14:36:47.497Z,7.70
2019-02-05T14:46:49.727Z,7.60
2019-02-05T14:56:51.852Z,8.10
2019-02-05T15:06:53.840Z,8.10
2019-02-05T15:16:56.026Z,8.00
2019-02-05T15:26:59.685Z,8.10
2019-02-05T15:37:03.451Z,8.00
2019-02-05T15:47:05.440Z,7.60
2019-02-05T15:57:07.407Z,7.30
2019-02-05T16:07:09.415Z,7.10
2019-02-05T16:17:11.404Z,7.00
2019-02-05T16:27:13.941Z,6.90
2019-02-05T16:37:18.778Z,6.80
2019-02-05T16:47:20.951Z,6.60
2019-02-05T16:57:23.189Z,6.60
2019-02-05T17:07:25.312Z,6.50
2019-02-05T17:17:27.357Z,6.60
2019-02-05T17:27:30.579Z,6.60
2019-02-05T17:37:32.980Z,6.70
2019-02-05T17:47:34.952Z,6.70
2019-02-05T17:57:37.154Z,6.70
2019-02-05T18:07:39.161Z,6.70
2019-02-05T18:17:41.504Z,6.60
2019-02-05T18:27:44.649Z,6.70
2019-02-05T18:37:46.764Z,6.70
2019-02-05T18:47:48.773Z,6.50
2019-02-05T18:57:51.076Z,6.30
2019-02-05T19:07:53.176Z,6.10
2019-02-05T19:17:55.088Z,6.10
2019-02-05T19:27:58.029Z,6.10
2019-02-05T19:38:00.458Z,6.10
2019-02-05T19:48:02.833Z,6.00
2019-02-05T19:58:05.240Z,6.00
2019-02-05T20:08:07.495Z,5.80
2019-02-05T20:18:10.104Z,5.50
2019-02-05T20:28:12.288Z,5.30
2019-02-05T20:38:14.288Z,5.20
2019-02-05T20:48:16.316Z,5.10
2019-02-05T20:58:18.835Z,5.00
2019-02-05T21:08:20.889Z,4.90
2019-02-05T21:18:23.539Z,4.80
2019-02-05T21:28:25.576Z,4.70
2019-02-05T21:38:27.567Z,4.70
2019-02-05T21:48:29.581Z,4.70
2019-02-05T21:58:31.704Z,4.80
2019-02-05T22:08:33.684Z,4.80
2019-02-05T22:18:35.920Z,4.90
2019-02-05T22:28:40.028Z,4.90
2019-02-05T22:38:42.968Z,4.90
2019-02-05T22:48:44.953Z,4.80
2019-02-05T22:58:47.126Z,4.80
2019-02-05T23:08:49.572Z,4.80
2019-02-05T23:18:53.040Z,4.70
2019-02-05T23:28:55.042Z,4.60
2019-02-05T23:38:57.143Z,4.70
2019-02-05T23:48:59.131Z,4.80
2019-02-05T23:59:01.147Z,4.80
